sensor_id;sensor_type;location;lat;lon;timestamp;pressure;altitude;pressure_sealevel;temperature;humidity
12468;BME280;57850;52.922;6.256;2023-01-09T00:01:11;99635.00;;;10.26;nan
12468;BME280;57850;52.922;6.256;2023-01-09T00:03:40;99633.75;;;10.33;nan
12468;BME280;57850;52.922;6.256;2023-01-09T00:06:07;99624.66;;;10.40;nan
12468;BME280;57850;52.922;6.256;2023-01-09T00:08:34;99629.78;;;10.26;nan
12468;BME280;57850;52.922;6.256;2023-01-09T00:11:01;99600.53;;;10.37;nan
12468;BME280;57850;52.922;6.256;2023-01-09T00:13:27;99588.16;;;10.25;nan
12468;BME280;57850;52.922;6.256;2023-01-09T00:15:54;99588.25;;;10.23;nan
12468;BME280;57850;52.922;6.256;2023-01-09T00:18:20;99573.50;;;10.06;nan
12468;BME280;57850;52.922;6.256;2023-01-09T00:20:49;99550.34;;;10.17;nan
12468;BME280;57850;52.922;6.256;2023-01-09T00:23:15;99546.72;;;10.20;nan
12468;BME280;57850;52.922;6.256;2023-01-09T00:25:42;99548.22;;;10.40;nan
12468;BME280;57850;52.922;6.256;2023-01-09T00:28:09;99533.63;;;10.51;nan
12468;BME280;57850;52.922;6.256;2023-01-09T00:30:35;99541.50;;;10.65;nan
12468;BME280;57850;52.922;6.256;2023-01-09T00:33:02;99520.94;;;10.75;nan
12468;BME280;57850;52.922;6.256;2023-01-09T00:35:29;99533.38;;;10.40;nan
12468;BME280;57850;52.922;6.256;2023-01-09T00:37:57;99497.78;;;10.85;nan
12468;BME280;57850;52.922;6.256;2023-01-09T00:40:23;99500.00;;;10.77;nan
12468;BME280;57850;52.922;6.256;2023-01-09T00:42:54;99500.66;;;10.80;nan
12468;BME280;57850;52.922;6.256;2023-01-09T00:45:23;99502.13;;;10.70;nan
12468;BME280;57850;52.922;6.256;2023-01-09T00:47:54;99489.28;;;10.81;nan
12468;BME280;57850;52.922;6.256;2023-01-09T00:50:26;99463.41;;;10.92;nan
12468;BME280;57850;52.922;6.256;2023-01-09T00:52:58;99467.84;;;10.76;nan
12468;BME280;57850;52.922;6.256;2023-01-09T00:55:26;99482.66;;;10.75;nan
12468;BME280;57850;52.922;6.256;2023-01-09T00:57:54;99467.97;;;10.89;nan
12468;BME280;57850;52.922;6.256;2023-01-09T01:00:21;99462.56;;;10.92;nan
12468;BME280;57850;52.922;6.256;2023-01-09T01:02:47;99463.41;;;10.92;nan
12468;BME280;57850;52.922;6.256;2023-01-09T01:05:14;99484.53;;;10.73;nan
12468;BME280;57850;52.922;6.256;2023-01-09T01:08:00;99479.84;;;10.64;nan
12468;BME280;57850;52.922;6.256;2023-01-09T01:10:26;99475.31;;;10.68;nan
12468;BME280;57850;52.922;6.256;2023-01-09T01:12:53;99483.81;;;10.56;nan
12468;BME280;57850;52.922;6.256;2023-01-09T01:15:20;99482.59;;;10.47;nan
12468;BME280;57850;52.922;6.256;2023-01-09T01:17:47;99449.78;;;10.87;nan
12468;BME280;57850;52.922;6.256;2023-01-09T01:20:16;99483.25;;;10.51;nan
12468;BME280;57850;52.922;6.256;2023-01-09T01:22:42;99456.00;;;10.70;nan
12468;BME280;57850;52.922;6.256;2023-01-09T01:25:12;99463.22;;;10.51;nan
12468;BME280;57850;52.922;6.256;2023-01-09T01:27:40;99459.72;;;10.66;nan
12468;BME280;57850;52.922;6.256;2023-01-09T01:30:08;99466.34;;;10.72;nan
12468;BME280;57850;52.922;6.256;2023-01-09T01:32:36;99478.09;;;10.65;nan
12468;BME280;57850;52.922;6.256;2023-01-09T01:35:04;99492.66;;;10.53;nan
12468;BME280;57850;52.922;6.256;2023-01-09T01:37:30;99480.16;;;10.74;nan
12468;BME280;57850;52.922;6.256;2023-01-09T01:39:57;99482.84;;;10.72;nan
12468;BME280;57850;52.922;6.256;2023-01-09T01:42:25;99492.91;;;10.64;nan
12468;BME280;57850;52.922;6.256;2023-01-09T01:45:06;99479.84;;;10.64;nan
12468;BME280;57850;52.922;6.256;2023-01-09T01:47:41;99495.09;;;10.56;nan
12468;BME280;57850;52.922;6.256;2023-01-09T01:50:14;99489.78;;;10.58;nan
12468;BME280;57850;52.922;6.256;2023-01-09T01:52:44;99509.69;;;10.45;nan
12468;BME280;57850;52.922;6.256;2023-01-09T01:55:12;99491.28;;;10.62;nan
12468;BME280;57850;52.922;6.256;2023-01-09T01:57:43;99512.94;;;10.48;nan
12468;BME280;57850;52.922;6.256;2023-01-09T02:00:11;99508.16;;;10.41;nan
12468;BME280;57850;52.922;6.256;2023-01-09T02:02:38;99518.41;;;10.44;nan
12468;BME280;57850;52.922;6.256;2023-01-09T02:05:08;99538.56;;;10.26;nan
12468;BME280;57850;52.922;6.256;2023-01-09T02:07:37;99522.03;;;10.41;nan
12468;BME280;57850;52.922;6.256;2023-01-09T02:10:04;99528.03;;;10.28;nan
12468;BME280;57850;52.922;6.256;2023-01-09T02:12:30;99522.72;;;10.45;nan
12468;BME280;57850;52.922;6.256;2023-01-09T02:15:02;99521.81;;;10.46;nan
12468;BME280;57850;52.922;6.256;2023-01-09T02:20:45;99519.56;;;10.24;nan
12468;BME280;57850;52.922;6.256;2023-01-09T02:29:41;99526.03;;;10.33;nan
12468;BME280;57850;52.922;6.256;2023-01-09T02:32:18;99527.47;;;10.23;nan
12468;BME280;57850;52.922;6.256;2023-01-09T02:34:55;99532.88;;;10.02;nan
12468;BME280;57850;52.922;6.256;2023-01-09T02:37:33;99543.66;;;9.96;nan
12468;BME280;57850;52.922;6.256;2023-01-09T02:40:06;99549.81;;;10.11;nan
12468;BME280;57850;52.922;6.256;2023-01-09T02:42:38;99529.56;;;10.16;nan
12468;BME280;57850;52.922;6.256;2023-01-09T02:45:06;99523.97;;;10.06;nan
12468;BME280;57850;52.922;6.256;2023-01-09T02:47:43;99525.38;;;10.13;nan
12468;BME280;57850;52.922;6.256;2023-01-09T02:50:14;99528.84;;;9.97;nan
12468;BME280;57850;52.922;6.256;2023-01-09T02:53:09;99545.81;;;9.73;nan
12468;BME280;57850;52.922;6.256;2023-01-09T02:55:52;99540.94;;;9.66;nan
12468;BME280;57850;52.922;6.256;2023-01-09T02:58:33;99532.47;;;9.79;nan
12468;BME280;57850;52.922;6.256;2023-01-09T03:01:20;99555.22;;;9.75;nan
12468;BME280;57850;52.922;6.256;2023-01-09T03:03:56;99542.13;;;9.61;nan
12468;BME280;57850;52.922;6.256;2023-01-09T03:06:31;99538.34;;;9.82;nan
12468;BME280;57850;52.922;6.256;2023-01-09T03:09:02;99542.31;;;9.74;nan
12468;BME280;57850;52.922;6.256;2023-01-09T03:11:34;99546.66;;;9.40;nan
12468;BME280;57850;52.922;6.256;2023-01-09T03:14:06;99537.06;;;9.58;nan
12468;BME280;57850;52.922;6.256;2023-01-09T03:16:35;99548.41;;;9.57;nan
12468;BME280;57850;52.922;6.256;2023-01-09T03:19:06;99567.75;;;9.36;nan
12468;BME280;57850;52.922;6.256;2023-01-09T03:21:34;99551.50;;;9.48;nan
12468;BME280;57850;52.922;6.256;2023-01-09T03:24:01;99548.78;;;9.49;nan
12468;BME280;57850;52.922;6.256;2023-01-09T03:26:28;99548.78;;;9.49;nan
12468;BME280;57850;52.922;6.256;2023-01-09T03:28:55;99548.34;;;9.41;nan
12468;BME280;57850;52.922;6.256;2023-01-09T03:31:23;99571.53;;;9.13;nan
12468;BME280;57850;52.922;6.256;2023-01-09T03:33:49;99540.41;;;9.60;nan
12468;BME280;57850;52.922;6.256;2023-01-09T03:36:19;99563.44;;;9.52;nan
12468;BME280;57850;52.922;6.256;2023-01-09T03:38:46;99568.66;;;9.35;nan
12468;BME280;57850;52.922;6.256;2023-01-09T03:41:13;99551.84;;;9.57;nan
12468;BME280;57850;52.922;6.256;2023-01-09T03:43:40;99577.69;;;9.45;nan
12468;BME280;57850;52.922;6.256;2023-01-09T03:46:07;99574.88;;;9.32;nan
12468;BME280;57850;52.922;6.256;2023-01-09T03:48:33;99572.63;;;9.42;nan
12468;BME280;57850;52.922;6.256;2023-01-09T03:51:00;99585.91;;;9.03;nan
12468;BME280;57850;52.922;6.256;2023-01-09T03:53:28;99580.16;;;8.96;nan
12468;BME280;57850;52.922;6.256;2023-01-09T03:55:55;99559.72;;;9.23;nan
12468;BME280;57850;52.922;6.256;2023-01-09T03:58:23;99594.09;;;8.95;nan
12468;BME280;57850;52.922;6.256;2023-01-09T04:00:50;99567.91;;;9.15;nan
12468;BME280;57850;52.922;6.256;2023-01-09T04:03:19;99569.06;;;8.93;nan
12468;BME280;57850;52.922;6.256;2023-01-09T04:05:46;99561.50;;;9.05;nan
12468;BME280;57850;52.922;6.256;2023-01-09T04:08:13;99572.38;;;9.13;nan
12468;BME280;57850;52.922;6.256;2023-01-09T04:10:44;99578.31;;;9.15;nan
12468;BME280;57850;52.922;6.256;2023-01-09T04:13:11;99574.06;;;9.14;nan
12468;BME280;57850;52.922;6.256;2023-01-09T04:15:37;99577.13;;;8.88;nan
12468;BME280;57850;52.922;6.256;2023-01-09T04:18:04;99565.78;;;9.06;nan
12468;BME280;57850;52.922;6.256;2023-01-09T04:20:31;99532.47;;;9.30;nan
12468;BME280;57850;52.922;6.256;2023-01-09T04:22:58;99562.19;;;8.92;nan
12468;BME280;57850;52.922;6.256;2023-01-09T04:25:24;99579.31;;;8.79;nan
12468;BME280;57850;52.922;6.256;2023-01-09T04:27:53;99563.34;;;8.86;nan
12468;BME280;57850;52.922;6.256;2023-01-09T04:30:19;99537.00;;;9.09;nan
12468;BME280;57850;52.922;6.256;2023-01-09T04:32:46;99560.75;;;8.86;nan
12468;BME280;57850;52.922;6.256;2023-01-09T04:35:13;99545.97;;;9.04;nan
12468;BME280;57850;52.922;6.256;2023-01-09T04:37:39;99553.63;;;9.07;nan
12468;BME280;57850;52.922;6.256;2023-01-09T04:40:07;99558.50;;;8.96;nan
12468;BME280;57850;52.922;6.256;2023-01-09T04:42:38;99560.88;;;9.00;nan
12468;BME280;57850;52.922;6.256;2023-01-09T04:45:09;99553.25;;;9.14;nan
12468;BME280;57850;52.922;6.256;2023-01-09T04:47:39;99551.38;;;9.17;nan
12468;BME280;57850;52.922;6.256;2023-01-09T04:50:08;99577.34;;;9.01;nan
12468;BME280;57850;52.922;6.256;2023-01-09T04:52:38;99558.94;;;9.21;nan
12468;BME280;57850;52.922;6.256;2023-01-09T04:55:06;99563.34;;;9.21;nan
12468;BME280;57850;52.922;6.256;2023-01-09T04:57:33;99587.66;;;9.02;nan
12468;BME280;57850;52.922;6.256;2023-01-09T05:00:00;99572.22;;;9.17;nan
12468;BME280;57850;52.922;6.256;2023-01-09T05:02:28;99574.06;;;9.14;nan
12468;BME280;57850;52.922;6.256;2023-01-09T05:04:54;99574.81;;;8.99;nan
12468;BME280;57850;52.922;6.256;2023-01-09T05:07:21;99562.72;;;9.15;nan
12468;BME280;57850;52.922;6.256;2023-01-09T05:09:47;99579.78;;;9.04;nan
12468;BME280;57850;52.922;6.256;2023-01-09T05:12:14;99579.47;;;8.93;nan
12468;BME280;57850;52.922;6.256;2023-01-09T05:14:41;99564.16;;;9.21;nan
12468;BME280;57850;52.922;6.256;2023-01-09T05:17:07;99576.94;;;9.26;nan
12468;BME280;57850;52.922;6.256;2023-01-09T05:19:35;99579.25;;;9.14;nan
12468;BME280;57850;52.922;6.256;2023-01-09T05:22:02;99584.38;;;9.16;nan
12468;BME280;57850;52.922;6.256;2023-01-09T05:24:29;99593.94;;;8.98;nan
12468;BME280;57850;52.922;6.256;2023-01-09T05:26:55;99584.91;;;9.05;nan
12468;BME280;57850;52.922;6.256;2023-01-09T05:29:22;99597.91;;;9.23;nan
12468;BME280;57850;52.922;6.256;2023-01-09T05:31:49;99625.16;;;8.98;nan
12468;BME280;57850;52.922;6.256;2023-01-09T05:34:16;99617.44;;;9.14;nan
12468;BME280;57850;52.922;6.256;2023-01-09T05:36:44;99619.34;;;9.10;nan
12468;BME280;57850;52.922;6.256;2023-01-09T05:39:11;99636.03;;;8.89;nan
12468;BME280;57850;52.922;6.256;2023-01-09T05:41:38;99608.16;;;9.26;nan
12468;BME280;57850;52.922;6.256;2023-01-09T05:44:04;99606.34;;;9.10;nan
12468;BME280;57850;52.922;6.256;2023-01-09T05:46:31;99615.91;;;9.10;nan
12468;BME280;57850;52.922;6.256;2023-01-09T05:48:57;99603.50;;;9.32;nan
12468;BME280;57850;52.922;6.256;2023-01-09T05:51:25;99647.53;;;8.84;nan
12468;BME280;57850;52.922;6.256;2023-01-09T05:53:53;99598.97;;;9.36;nan
12468;BME280;57850;52.922;6.256;2023-01-09T05:56:19;99618.28;;;9.14;nan
12468;BME280;57850;52.922;6.256;2023-01-09T05:58:46;99616.59;;;9.13;nan
12468;BME280;57850;52.922;6.256;2023-01-09T06:01:12;99629.06;;;9.24;nan
12468;BME280;57850;52.922;6.256;2023-01-09T06:03:39;99661.88;;;8.92;nan
12468;BME280;57850;52.922;6.256;2023-01-09T06:06:06;99618.50;;;9.10;nan
12468;BME280;57850;52.922;6.256;2023-01-09T06:08:33;99623.09;;;9.22;nan
12468;BME280;57850;52.922;6.256;2023-01-09T06:11:01;99614.81;;;9.31;nan
12468;BME280;57850;52.922;6.256;2023-01-09T06:13:27;99627.63;;;9.36;nan
12468;BME280;57850;52.922;6.256;2023-01-09T06:15:54;99636.50;;;9.32;nan
12468;BME280;57850;52.922;6.256;2023-01-09T06:18:20;99647.28;;;9.24;nan
12468;BME280;57850;52.922;6.256;2023-01-09T06:20:47;99641.84;;;9.29;nan
12468;BME280;57850;52.922;6.256;2023-01-09T06:23:14;99653.47;;;9.22;nan
12468;BME280;57850;52.922;6.256;2023-01-09T06:25:41;99657.59;;;8.91;nan
12468;BME280;57850;52.922;6.256;2023-01-09T06:28:09;99649.69;;;8.93;nan
12468;BME280;57850;52.922;6.256;2023-01-09T06:30:36;99639.03;;;8.99;nan
12468;BME280;57850;52.922;6.256;2023-01-09T06:33:03;99660.81;;;8.96;nan
12468;BME280;57850;52.922;6.256;2023-01-09T06:35:30;99666.75;;;8.81;nan
12468;BME280;57850;52.922;6.256;2023-01-09T06:37:56;99643.31;;;9.17;nan
12468;BME280;57850;52.922;6.256;2023-01-09T06:40:25;99666.69;;;9.00;nan
12468;BME280;57850;52.922;6.256;2023-01-09T06:42:52;99647.19;;;9.08;nan
12468;BME280;57850;52.922;6.256;2023-01-09T06:45:20;99682.19;;;8.84;nan
12468;BME280;57850;52.922;6.256;2023-01-09T06:47:46;99661.09;;;8.90;nan
12468;BME280;57850;52.922;6.256;2023-01-09T06:50:14;99676.13;;;9.02;nan
12468;BME280;57850;52.922;6.256;2023-01-09T06:52:42;99685.66;;;8.85;nan
12468;BME280;57850;52.922;6.256;2023-01-09T06:55:08;99692.19;;;8.75;nan
12468;BME280;57850;52.922;6.256;2023-01-09T06:57:35;99686.13;;;8.93;nan
12468;BME280;57850;52.922;6.256;2023-01-09T07:00:03;99705.00;;;8.79;nan
12468;BME280;57850;52.922;6.256;2023-01-09T07:02:30;99718.28;;;8.73;nan
12468;BME280;57850;52.922;6.256;2023-01-09T07:04:57;99717.66;;;8.49;nan
12468;BME280;57850;52.922;6.256;2023-01-09T07:07:24;99693.94;;;8.74;nan
12468;BME280;57850;52.922;6.256;2023-01-09T07:09:50;99715.75;;;8.53;nan
12468;BME280;57850;52.922;6.256;2023-01-09T07:12:17;99713.00;;;8.56;nan
12468;BME280;57850;52.922;6.256;2023-01-09T07:14:43;99721.22;;;8.66;nan
12468;BME280;57850;52.922;6.256;2023-01-09T07:17:11;99717.75;;;8.48;nan
12468;BME280;57850;52.922;6.256;2023-01-09T07:19:40;99713.28;;;8.69;nan
12468;BME280;57850;52.922;6.256;2023-01-09T07:22:09;99745.41;;;8.86;nan
12468;BME280;57850;52.922;6.256;2023-01-09T07:24:38;99740.28;;;8.47;nan
12468;BME280;57850;52.922;6.256;2023-01-09T07:27:05;99724.50;;;8.71;nan
12468;BME280;57850;52.922;6.256;2023-01-09T07:29:31;99736.34;;;8.57;nan
12468;BME280;57850;52.922;6.256;2023-01-09T07:31:58;99715.03;;;8.87;nan
12468;BME280;57850;52.922;6.256;2023-01-09T07:34:24;99730.72;;;8.48;nan
12468;BME280;57850;52.922;6.256;2023-01-09T07:36:52;99691.50;;;8.71;nan
12468;BME280;57850;52.922;6.256;2023-01-09T07:39:19;99701.09;;;8.71;nan
12468;BME280;57850;52.922;6.256;2023-01-09T07:41:46;99707.34;;;8.67;nan
12468;BME280;57850;52.922;6.256;2023-01-09T07:44:14;99700.09;;;8.73;nan
12468;BME280;57850;52.922;6.256;2023-01-09T07:46:40;99686.97;;;8.93;nan
12468;BME280;57850;52.922;6.256;2023-01-09T07:49:07;99695.72;;;8.92;nan
12468;BME280;57850;52.922;6.256;2023-01-09T07:51:34;99666.03;;;9.31;nan
12468;BME280;57850;52.922;6.256;2023-01-09T07:54:05;99687.31;;;9.22;nan
12468;BME280;57850;52.922;6.256;2023-01-09T07:56:31;99682.72;;;9.44;nan
12468;BME280;57850;52.922;6.256;2023-01-09T07:58:58;99698.50;;;9.24;nan
12468;BME280;57850;52.922;6.256;2023-01-09T08:01:24;99704.38;;;9.10;nan
12468;BME280;57850;52.922;6.256;2023-01-09T08:03:51;99691.38;;;9.27;nan
12468;BME280;57850;52.922;6.256;2023-01-09T08:06:17;99690.59;;;9.25;nan
12468;BME280;57850;52.922;6.256;2023-01-09T08:08:44;99688.69;;;9.29;nan
12468;BME280;57850;52.922;6.256;2023-01-09T08:11:15;99683.81;;;9.23;nan
12468;BME280;57850;52.922;6.256;2023-01-09T08:13:42;99723.38;;;8.93;nan
12468;BME280;57850;52.922;6.256;2023-01-09T08:16:09;99699.50;;;8.85;nan
12468;BME280;57850;52.922;6.256;2023-01-09T08:18:35;99683.19;;;9.18;nan
12468;BME280;57850;52.922;6.256;2023-01-09T08:21:02;99682.34;;;9.17;nan
12468;BME280;57850;52.922;6.256;2023-01-09T08:23:28;99674.44;;;9.19;nan
12468;BME280;57850;52.922;6.256;2023-01-09T08:25:55;99672.03;;;9.33;nan
12468;BME280;57850;52.922;6.256;2023-01-09T08:28:23;99668.63;;;9.31;nan
12468;BME280;57850;52.922;6.256;2023-01-09T08:30:49;99674.59;;;9.15;nan
12468;BME280;57850;52.922;6.256;2023-01-09T08:33:16;99639.09;;;9.32;nan
12468;BME280;57850;52.922;6.256;2023-01-09T08:35:42;99639.31;;;9.27;nan
12468;BME280;57850;52.922;6.256;2023-01-09T08:38:09;99634.50;;;9.20;nan
12468;BME280;57850;52.922;6.256;2023-01-09T08:40:36;99640.94;;;8.95;nan
12468;BME280;57850;52.922;6.256;2023-01-09T08:43:02;99627.53;;;9.03;nan
12468;BME280;57850;52.922;6.256;2023-01-09T08:45:48;99599.38;;;9.11;nan
12468;BME280;57850;52.922;6.256;2023-01-09T08:48:33;99599.13;;;9.33;nan
12468;BME280;57850;52.922;6.256;2023-01-09T08:50:59;99613.66;;;9.37;nan
12468;BME280;57850;52.922;6.256;2023-01-09T08:53:26;99623.72;;;9.10;nan
12468;BME280;57850;52.922;6.256;2023-01-09T08:55:53;99629.75;;;9.10;nan
12468;BME280;57850;52.922;6.256;2023-01-09T08:58:20;99597.22;;;9.36;nan
12468;BME280;57850;52.922;6.256;2023-01-09T09:00:48;99611.38;;;9.31;nan
12468;BME280;57850;52.922;6.256;2023-01-09T09:03:14;99594.22;;;9.44;nan
12468;BME280;57850;52.922;6.256;2023-01-09T09:05:41;99586.22;;;9.64;nan
12468;BME280;57850;52.922;6.256;2023-01-09T09:08:09;99622.41;;;9.36;nan
12468;BME280;57850;52.922;6.256;2023-01-09T09:10:35;99587.59;;;10.02;nan
12468;BME280;57850;52.922;6.256;2023-01-09T09:13:02;99627.16;;;9.78;nan
12468;BME280;57850;52.922;6.256;2023-01-09T09:15:29;99630.91;;;10.05;nan
12468;BME280;57850;52.922;6.256;2023-01-09T09:17:58;99675.84;;;9.43;nan
12468;BME280;57850;52.922;6.256;2023-01-09T09:20:27;99632.63;;;9.56;nan
12468;BME280;57850;52.922;6.256;2023-01-09T09:22:54;99601.56;;;10.01;nan
12468;BME280;57850;52.922;6.256;2023-01-09T09:25:20;99638.53;;;9.59;nan
12468;BME280;57850;52.922;6.256;2023-01-09T09:27:47;99625.91;;;9.52;nan
12468;BME280;57850;52.922;6.256;2023-01-09T09:30:16;99601.78;;;9.81;nan
12468;BME280;57850;52.922;6.256;2023-01-09T09:32:43;99597.94;;;9.88;nan
12468;BME280;57850;52.922;6.256;2023-01-09T09:35:11;99607.31;;;9.75;nan
12468;BME280;57850;52.922;6.256;2023-01-09T09:37:42;99605.47;;;9.61;nan
12468;BME280;57850;52.922;6.256;2023-01-09T09:40:15;99590.06;;;9.90;nan
12468;BME280;57850;52.922;6.256;2023-01-09T09:42:57;99600.78;;;9.99;nan
12468;BME280;57850;52.922;6.256;2023-01-09T09:45:52;99581.75;;;9.99;nan
12468;BME280;57850;52.922;6.256;2023-01-09T09:48:28;99588.16;;;10.25;nan
12468;BME280;57850;52.922;6.256;2023-01-09T09:51:19;99600.97;;;9.96;nan
12468;BME280;57850;52.922;6.256;2023-01-09T09:53:53;99588.66;;;10.15;nan
12468;BME280;57850;52.922;6.256;2023-01-09T09:56:24;99592.59;;;10.07;nan
12468;BME280;57850;52.922;6.256;2023-01-09T09:58:55;99620.16;;;9.95;nan
12468;BME280;57850;52.922;6.256;2023-01-09T10:01:30;99637.03;;;9.71;nan
12468;BME280;57850;52.922;6.256;2023-01-09T10:04:00;99634.59;;;10.01;nan
12468;BME280;57850;52.922;6.256;2023-01-09T10:06:33;99657.78;;;9.90;nan
12468;BME280;57850;52.922;6.256;2023-01-09T10:09:07;99632.25;;;10.12;nan
12468;BME280;57850;52.922;6.256;2023-01-09T10:11:41;99635.53;;;10.33;nan
12468;BME280;57850;52.922;6.256;2023-01-09T10:14:11;99638.84;;;10.19;nan
12468;BME280;57850;52.922;6.256;2023-01-09T10:16:55;99642.66;;;10.45;nan
12468;BME280;57850;52.922;6.256;2023-01-09T10:19:36;99654.69;;;10.32;nan
12468;BME280;57850;52.922;6.256;2023-01-09T10:22:14;99647.66;;;10.49;nan
12468;BME280;57850;52.922;6.256;2023-01-09T10:24:57;99654.44;;;10.52;nan
12468;BME280;57850;52.922;6.256;2023-01-09T10:27:35;99669.41;;;10.33;nan
12468;BME280;57850;52.922;6.256;2023-01-09T10:30:21;99673.25;;;10.26;nan
12468;BME280;57850;52.922;6.256;2023-01-09T10:32:57;99652.53;;;10.40;nan
12468;BME280;57850;52.922;6.256;2023-01-09T10:35:40;99660.97;;;10.28;nan
12468;BME280;57850;52.922;6.256;2023-01-09T10:38:12;99661.66;;;10.47;nan
12468;BME280;57850;52.922;6.256;2023-01-09T10:40:45;99653.09;;;10.60;nan
12468;BME280;57850;52.922;6.256;2023-01-09T10:43:20;99655.75;;;10.74;nan
12468;BME280;57850;52.922;6.256;2023-01-09T10:45:58;99672.53;;;10.86;nan
12468;BME280;57850;52.922;6.256;2023-01-09T10:48:29;99681.84;;;10.74;nan
12468;BME280;57850;52.922;6.256;2023-01-09T10:50:57;99690.47;;;10.61;nan
12468;BME280;57850;52.922;6.256;2023-01-09T10:53:27;99683.59;;;11.05;nan
12468;BME280;57850;52.922;6.256;2023-01-09T10:55:59;99698.97;;;10.80;nan
12468;BME280;57850;52.922;6.256;2023-01-09T10:58:26;99702.13;;;10.85;nan
12468;BME280;57850;52.922;6.256;2023-01-09T11:00:53;99702.66;;;10.92;nan
12468;BME280;57850;52.922;6.256;2023-01-09T11:03:21;99697.78;;;11.15;nan
12468;BME280;57850;52.922;6.256;2023-01-09T11:05:51;99703.97;;;11.14;nan
12468;BME280;57850;52.922;6.256;2023-01-09T11:08:22;99701.63;;;10.94;nan
12468;BME280;57850;52.922;6.256;2023-01-09T11:10:54;99694.75;;;11.23;nan
12468;BME280;57850;52.922;6.256;2023-01-09T11:13:23;99671.34;;;11.51;nan
12468;BME280;57850;52.922;6.256;2023-01-09T11:16:05;99682.28;;;11.58;nan
12468;BME280;57850;52.922;6.256;2023-01-09T11:18:34;99704.03;;;11.58;nan
12468;BME280;57850;52.922;6.256;2023-01-09T11:21:12;99693.34;;;11.77;nan
12468;BME280;57850;52.922;6.256;2023-01-09T11:23:39;99711.31;;;11.38;nan
12468;BME280;57850;52.922;6.256;2023-01-09T11:26:21;99697.16;;;11.42;nan
12468;BME280;57850;52.922;6.256;2023-01-09T11:29:04;99698.19;;;11.39;nan
12468;BME280;57850;52.922;6.256;2023-01-09T11:31:31;99720.44;;;11.31;nan
12468;BME280;57850;52.922;6.256;2023-01-09T11:33:58;99729.91;;;11.17;nan
12468;BME280;57850;52.922;6.256;2023-01-09T11:36:25;99715.13;;;11.62;nan
12468;BME280;57850;52.922;6.256;2023-01-09T11:38:53;99733.25;;;11.65;nan
12468;BME280;57850;52.922;6.256;2023-01-09T11:41:24;99747.59;;;11.58;nan
12468;BME280;57850;52.922;6.256;2023-01-09T11:43:53;99747.75;;;11.55;nan
12468;BME280;57850;52.922;6.256;2023-01-09T11:46:36;99763.53;;;11.38;nan
12468;BME280;57850;52.922;6.256;2023-01-09T11:49:05;99770.19;;;11.59;nan
12468;BME280;57850;52.922;6.256;2023-01-09T11:51:34;99767.44;;;11.76;nan
12468;BME280;57850;52.922;6.256;2023-01-09T11:54:19;99760.34;;;11.78;nan
12468;BME280;57850;52.922;6.256;2023-01-09T11:56:49;99809.53;;;11.24;nan
12468;BME280;57850;52.922;6.256;2023-01-09T11:59:18;99767.31;;;11.93;nan
12468;BME280;57850;52.922;6.256;2023-01-09T12:02:16;99764.28;;;12.43;nan
12468;BME280;57850;52.922;6.256;2023-01-09T12:04:50;99804.09;;;12.34;nan
12468;BME280;57850;52.922;6.256;2023-01-09T12:07:31;99825.69;;;11.78;nan
12468;BME280;57850;52.922;6.256;2023-01-09T12:10:24;99815.72;;;11.85;nan
12468;BME280;57850;52.922;6.256;2023-01-09T12:13:00;99833.03;;;11.87;nan
12468;BME280;57850;52.922;6.256;2023-01-09T12:15:32;99820.16;;;11.98;nan
12468;BME280;57850;52.922;6.256;2023-01-09T12:18:26;99823.09;;;12.08;nan
12468;BME280;57850;52.922;6.256;2023-01-09T12:21:13;99830.94;;;12.22;nan
12468;BME280;57850;52.922;6.256;2023-01-09T12:23:56;99835.09;;;11.96;nan
12468;BME280;57850;52.922;6.256;2023-01-09T12:26:30;99838.09;;;12.04;nan
12468;BME280;57850;52.922;6.256;2023-01-09T12:29:18;99831.50;;;12.13;nan
12468;BME280;57850;52.922;6.256;2023-01-09T12:32:01;99830.97;;;12.36;nan
12468;BME280;57850;52.922;6.256;2023-01-09T12:34:43;99856.00;;;12.26;nan
12468;BME280;57850;52.922;6.256;2023-01-09T12:37:34;99840.78;;;12.18;nan
12468;BME280;57850;52.922;6.256;2023-01-09T12:40:12;99852.41;;;11.83;nan
12468;BME280;57850;52.922;6.256;2023-01-09T12:42:52;99855.88;;;11.84;nan
12468;BME280;57850;52.922;6.256;2023-01-09T12:45:35;99850.47;;;11.87;nan
12468;BME280;57850;52.922;6.256;2023-01-09T12:48:14;99827.63;;;12.48;nan
12468;BME280;57850;52.922;6.256;2023-01-09T12:51:22;99862.38;;;11.76;nan
12468;BME280;57850;52.922;6.256;2023-01-09T12:53:56;99850.63;;;12.13;nan
12468;BME280;57850;52.922;6.256;2023-01-09T12:56:25;99860.88;;;12.02;nan
12468;BME280;57850;52.922;6.256;2023-01-09T12:58:57;99850.56;;;12.15;nan
12468;BME280;57850;52.922;6.256;2023-01-09T13:01:29;99856.09;;;12.24;nan
12468;BME280;57850;52.922;6.256;2023-01-09T13:04:02;99861.34;;;12.39;nan
12468;BME280;57850;52.922;6.256;2023-01-09T13:06:38;99887.25;;;11.84;nan
12468;BME280;57850;52.922;6.256;2023-01-09T13:09:13;99893.44;;;11.65;nan
12468;BME280;57850;52.922;6.256;2023-01-09T13:11:46;99864.88;;;12.23;nan
12468;BME280;57850;52.922;6.256;2023-01-09T13:14:19;99888.97;;;12.28;nan
12468;BME280;57850;52.922;6.256;2023-01-09T13:16:50;99917.03;;;12.11;nan
12468;BME280;57850;52.922;6.256;2023-01-09T13:19:22;99917.91;;;12.25;nan
12468;BME280;57850;52.922;6.256;2023-01-09T13:21:51;99901.31;;;12.41;nan
12468;BME280;57850;52.922;6.256;2023-01-09T13:24:21;99878.75;;;13.38;nan
12468;BME280;57850;52.922;6.256;2023-01-09T13:26:52;99888.47;;;13.77;nan
12468;BME280;57850;52.922;6.256;2023-01-09T13:29:22;99930.25;;;13.11;nan
12468;BME280;57850;52.922;6.256;2023-01-09T13:32:27;99948.22;;;12.73;nan
12468;BME280;57850;52.922;6.256;2023-01-09T13:34:57;99955.78;;;12.64;nan
12468;BME280;57850;52.922;6.256;2023-01-09T13:37:27;99953.22;;;12.48;nan
12468;BME280;57850;52.922;6.256;2023-01-09T13:39:57;99959.06;;;12.38;nan
12468;BME280;57850;52.922;6.256;2023-01-09T13:42:24;99960.41;;;12.45;nan
12468;BME280;57850;52.922;6.256;2023-01-09T13:45:19;99941.34;;;12.57;nan
12468;BME280;57850;52.922;6.256;2023-01-09T13:48:23;99964.25;;;12.23;nan
12468;BME280;57850;52.922;6.256;2023-01-09T13:50:50;99963.78;;;12.47;nan
12468;BME280;57850;52.922;6.256;2023-01-09T13:53:43;99991.75;;;12.30;nan
12468;BME280;57850;52.922;6.256;2023-01-09T13:56:12;99993.38;;;12.17;nan